Time;durP1;ratioP1;P1;durP2;ratioP2;P2;SDS_P1;SDS_P2;PMS_P1;PMS_P2;Temp;Humidity;BMP_temperature;BMP_pressure;BME280_temperature;BME280_humidity;BME280_pressure;Samples;Min_cycle;Max_cycle;Signal;HPM_P1;HPM_P2
2021/04/05 00:01:37;;;;;;;58.53;29.33;;;3.80;99.90;;;;;;4875182;29;20061;-77
2021/04/05 00:04:04;;;;;;;59.90;28.75;;;3.80;99.90;;;;;;4890528;29;20057;-77
2021/04/05 00:06:31;;;;;;;56.05;29.65;;;3.80;99.90;;;;;;4875253;29;20072;-77
2021/04/05 00:08:57;;;;;;;55.28;29.80;;;3.80;99.90;;;;;;4876876;29;20154;-77
2021/04/05 00:11:24;;;;;;;57.47;29.17;;;3.80;99.90;;;;;;4890738;29;20065;-78
2021/04/05 00:13:50;;;;;;;63.88;30.65;;;3.80;99.90;;;;;;4893191;29;20504;-78
2021/04/05 00:16:18;;;;;;;62.08;31.00;;;3.80;99.90;;;;;;4879471;29;20052;-77
2021/04/05 00:18:45;;;;;;;60.88;31.33;;;3.80;99.90;;;;;;4895321;29;20049;-76
2021/04/05 00:21:15;;;;;;;59.47;31.38;;;3.80;99.90;;;;;;4907067;29;20113;-77
2021/04/05 00:23:42;;;;;;;61.30;31.95;;;3.80;99.90;;;;;;4876966;29;20045;-77
2021/04/05 00:26:09;;;;;;;63.47;31.90;;;3.80;99.90;;;;;;4898075;29;20052;-77
2021/04/05 00:28:36;;;;;;;68.18;33.70;;;3.80;99.90;;;;;;4875200;29;20571;-77
2021/04/05 00:31:04;;;;;;;66.63;33.63;;;3.80;99.90;;;;;;4892415;29;20136;-77
2021/04/05 00:33:30;;;;;;;62.60;32.78;;;3.80;99.90;;;;;;4892825;29;20120;-78
2021/04/05 00:35:57;;;;;;;65.05;32.42;;;3.80;99.90;;;;;;4892551;29;20552;-78
2021/04/05 00:38:24;;;;;;;73.32;34.75;;;3.80;99.90;;;;;;4892363;29;20117;-78
2021/04/05 00:41:09;;;;;;;71.32;32.90;;;3.80;99.90;;;;;;4905374;29;20044;-77
2021/04/05 00:43:37;;;;;;;66.57;34.92;;;3.80;99.90;;;;;;4895961;29;20408;-76
2021/04/05 00:46:06;;;;;;;66.78;30.73;;;3.80;99.90;;;;;;4889937;29;20551;-78
2021/04/05 00:48:34;;;;;;;60.72;32.38;;;3.80;99.90;;;;;;4876428;29;20063;-77
2021/04/05 00:51:24;;;;;;;75.28;32.58;;;3.80;99.90;;;;;;4889272;29;20059;-78
2021/04/05 00:53:51;;;;;;;73.63;32.83;;;3.90;99.90;;;;;;4899704;29;20135;-77
2021/04/05 00:56:21;;;;;;;59.45;33.72;;;3.90;99.90;;;;;;4901912;29;20059;-77
2021/04/05 00:58:48;;;;;;;56.65;31.23;;;3.90;99.90;;;;;;4891583;29;20049;-78
2021/04/05 01:01:20;;;;;;;62.65;32.30;;;4.00;99.90;;;;;;4878520;29;20517;-77
2021/04/05 01:03:48;;;;;;;69.57;34.80;;;3.90;99.90;;;;;;4893933;29;20053;-78
2021/04/05 01:06:28;;;;;;;70.18;35.58;;;4.00;99.90;;;;;;4878948;29;20508;-78
2021/04/05 01:08:55;;;;;;;69.45;33.63;;;4.00;99.90;;;;;;4891974;29;20516;-78
2021/04/05 01:11:27;;;;;;;65.30;32.67;;;3.90;99.90;;;;;;4873629;29;20495;-76
2021/04/05 01:13:55;;;;;;;65.57;35.08;;;4.00;99.90;;;;;;4888222;29;20112;-78
2021/04/05 01:16:26;;;;;;;61.25;30.88;;;4.00;99.90;;;;;;4858968;29;20565;-77
2021/04/05 01:18:53;;;;;;;76.35;35.65;;;4.00;99.90;;;;;;4883811;29;20517;-77
2021/04/05 01:21:21;;;;;;;76.40;37.35;;;4.10;99.90;;;;;;4893927;29;20096;-77
2021/04/05 01:23:48;;;;;;;75.93;34.42;;;4.10;99.90;;;;;;4887234;29;20045;-77
2021/04/05 01:26:14;;;;;;;67.53;36.03;;;4.10;99.90;;;;;;4874069;29;20041;-77
2021/04/05 01:28:41;;;;;;;76.03;37.28;;;4.10;99.90;;;;;;4879649;29;20330;-77
2021/04/05 01:31:07;;;;;;;66.05;31.73;;;4.20;99.90;;;;;;4859628;29;20053;-78
2021/04/05 01:33:42;;;;;;;61.35;30.58;;;4.20;99.90;;;;;;4860697;29;20056;-77
2021/04/05 01:36:11;;;;;;;64.10;35.13;;;4.30;99.90;;;;;;4874896;29;20049;-77
2021/04/05 01:38:43;;;;;;;63.28;34.08;;;4.30;99.90;;;;;;4869487;29;20063;-77
2021/04/05 01:41:15;;;;;;;60.15;32.70;;;4.30;99.90;;;;;;4860500;29;20053;-77
2021/04/05 01:43:42;;;;;;;62.63;35.28;;;4.40;99.90;;;;;;4891467;29;20052;-76
2021/04/05 01:46:11;;;;;;;69.97;34.78;;;4.40;99.90;;;;;;4876806;29;20108;-77
2021/04/05 01:48:38;;;;;;;66.90;34.65;;;4.50;99.90;;;;;;4874243;29;20607;-77
2021/04/05 01:51:08;;;;;;;70.00;32.63;;;4.40;99.90;;;;;;4876045;29;20149;-78
2021/04/05 01:53:36;;;;;;;61.08;31.58;;;4.40;99.90;;;;;;4872597;29;20244;-77
2021/04/05 01:56:06;;;;;;;66.53;34.00;;;4.40;99.90;;;;;;4875975;29;20053;-77
2021/04/05 01:58:36;;;;;;;58.30;31.48;;;4.50;99.90;;;;;;4885013;29;20048;-77
2021/04/05 02:01:04;;;;;;;52.47;29.80;;;4.50;99.90;;;;;;4886188;29;20148;-77
2021/04/05 02:03:32;;;;;;;48.08;25.98;;;4.50;99.90;;;;;;4909097;29;20056;-77
2021/04/05 02:06:09;;;;;;;54.35;29.60;;;4.50;99.90;;;;;;4878209;29;20059;-77
2021/04/05 02:08:37;;;;;;;54.55;30.63;;;4.60;99.90;;;;;;4893116;29;20107;-77
2021/04/05 02:11:11;;;;;;;50.85;30.33;;;4.60;99.90;;;;;;4909290;29;20252;-78
2021/04/05 02:13:38;;;;;;;39.20;26.65;;;4.60;99.90;;;;;;4882846;29;20124;-77
2021/04/05 02:16:05;;;;;;;52.05;28.88;;;4.70;99.90;;;;;;4889274;29;20117;-77
2021/04/05 02:18:32;;;;;;;55.70;28.65;;;4.70;99.90;;;;;;4872750;29;20428;-77
2021/04/05 02:20:59;;;;;;;60.70;32.97;;;4.70;99.90;;;;;;4875463;29;20101;-76
2021/04/05 02:23:26;;;;;;;63.42;31.42;;;4.70;99.90;;;;;;4870397;29;20682;-76
2021/04/05 02:26:08;;;;;;;54.13;31.10;;;4.70;99.90;;;;;;4869754;29;20526;-77
2021/04/05 02:28:38;;;;;;;51.17;28.23;;;4.70;99.90;;;;;;4886985;29;20052;-78
2021/04/05 02:31:07;;;;;;;57.15;30.35;;;4.70;99.90;;;;;;4887254;29;20431;-79
2021/04/05 02:33:38;;;;;;;59.88;29.48;;;4.70;99.90;;;;;;4862833;29;20064;-78
2021/04/05 02:36:08;;;;;;;57.03;31.45;;;4.70;99.90;;;;;;4857271;29;20088;-78
2021/04/05 02:38:46;;;;;;;52.20;27.88;;;4.80;99.90;;;;;;4888330;29;20163;-77
2021/04/05 02:41:16;;;;;;;58.67;31.00;;;4.80;99.90;;;;;;4877887;29;20082;-80
2021/04/05 02:43:43;;;;;;;47.67;26.17;;;4.80;99.90;;;;;;4892333;29;20060;-77
2021/04/05 02:46:18;;;;;;;61.42;31.30;;;4.80;99.90;;;;;;4875259;29;20053;-77
2021/04/05 02:48:46;;;;;;;;;;;4.90;99.90;;;;;;4888992;29;20118;-77
2021/04/05 02:51:14;;;;;;;53.80;30.00;;;4.90;99.90;;;;;;4897879;29;19934;-77
2021/04/05 02:53:56;;;;;;;52.97;28.98;;;4.80;99.90;;;;;;4887994;29;20049;-76
2021/04/05 02:56:24;;;;;;;51.42;29.05;;;4.80;99.90;;;;;;4883088;29;20080;-76
2021/04/05 02:58:52;;;;;;;55.47;29.05;;;4.90;99.90;;;;;;4891884;29;20053;-77
2021/04/05 03:01:20;;;;;;;51.60;27.77;;;4.90;99.90;;;;;;4858988;29;20071;-77
2021/04/05 03:03:47;;;;;;;54.28;29.05;;;5.00;99.90;;;;;;4892620;29;20124;-78
2021/04/05 03:06:17;;;;;;;49.10;30.33;;;5.00;99.90;;;;;;4908192;29;20423;-77
2021/04/05 03:08:44;;;;;;;59.53;31.33;;;5.00;99.90;;;;;;4889781;29;20820;-77
2021/04/05 03:11:13;;;;;;;56.63;29.85;;;4.90;99.90;;;;;;4875794;29;20056;-77
2021/04/05 03:13:40;;;;;;;55.20;28.48;;;5.00;99.90;;;;;;4877253;29;20156;-77
2021/04/05 03:16:11;;;;;;;45.63;25.98;;;5.00;99.90;;;;;;4891883;29;20187;-77
2021/04/05 03:18:39;;;;;;;48.78;27.45;;;5.00;99.90;;;;;;4907812;29;20044;-77
2021/04/05 03:21:12;;;;;;;59.30;29.05;;;5.00;99.90;;;;;;4873202;29;20069;-77
2021/04/05 03:23:40;;;;;;;55.28;28.50;;;5.00;99.90;;;;;;4888368;29;20048;-77
2021/04/05 03:26:07;;;;;;;53.25;29.50;;;5.10;99.90;;;;;;4906498;29;20057;-77
2021/04/05 03:28:33;;;;;;;49.40;28.63;;;5.10;99.90;;;;;;4895509;29;20063;-77
2021/04/05 03:31:12;;;;;;;47.22;26.75;;;5.10;99.90;;;;;;4873032;29;20049;-77
2021/04/05 03:33:58;;;;;;;51.88;26.80;;;5.10;99.90;;;;;;4871979;29;20063;-78
2021/04/05 03:36:31;;;;;;;55.88;29.77;;;5.20;99.90;;;;;;4873931;29;20052;-77
2021/04/05 03:38:58;;;;;;;49.92;27.13;;;5.20;99.90;;;;;;4876679;29;20299;-76
2021/04/05 03:41:37;;;;;;;48.63;27.77;;;5.20;99.90;;;;;;4857785;29;20163;-77
2021/04/05 03:44:25;;;;;;;48.75;28.73;;;5.30;99.90;;;;;;4873266;29;20052;-76
2021/04/05 03:46:59;;;;;;;48.50;25.85;;;5.30;99.90;;;;;;4871775;29;20048;-77
2021/04/05 03:49:43;;;;;;;49.63;26.05;;;5.30;99.90;;;;;;4895972;29;20056;-78
2021/04/05 03:52:17;;;;;;;51.08;26.67;;;5.40;99.90;;;;;;4875546;29;20575;-77
2021/04/05 03:54:54;;;;;;;52.17;26.73;;;5.30;99.90;;;;;;4883784;29;20076;-77
2021/04/05 03:57:24;;;;;;;43.38;26.02;;;5.40;99.90;;;;;;4871618;29;20496;-77
2021/04/05 03:59:54;;;;;;;52.67;27.75;;;5.40;99.90;;;;;;4889353;29;20053;-77
2021/04/05 04:02:31;;;;;;;47.13;26.67;;;5.40;99.90;;;;;;4873455;29;20049;-77
2021/04/05 04:05:03;;;;;;;51.67;28.88;;;5.40;99.90;;;;;;4877599;29;20466;-77
2021/04/05 04:07:37;;;;;;;56.15;30.40;;;5.40;99.90;;;;;;4888011;29;20107;-77
2021/04/05 04:10:09;;;;;;;49.80;27.93;;;5.40;99.90;;;;;;4883449;29;20508;-77
2021/04/05 04:12:37;;;;;;;49.55;28.60;;;5.40;99.90;;;;;;4887452;29;20539;-77
2021/04/05 04:15:06;;;;;;;55.47;28.20;;;5.40;99.90;;;;;;4872432;29;20559;-77
2021/04/05 04:17:35;;;;;;;57.10;29.20;;;5.40;99.90;;;;;;4872447;29;20093;-77
2021/04/05 04:20:09;;;;;;;51.60;29.52;;;5.40;99.90;;;;;;4863035;29;20071;-77
2021/04/05 04:22:36;;;;;;;46.35;27.50;;;5.40;99.90;;;;;;4893004;29;20613;-77
2021/04/05 04:25:05;;;;;;;52.33;27.92;;;5.40;99.90;;;;;;4882215;29;20049;-77
2021/04/05 04:27:31;;;;;;;66.28;31.27;;;5.40;99.90;;;;;;4879335;29;20120;-76
2021/04/05 04:29:58;;;;;;;51.92;29.55;;;5.50;99.90;;;;;;4884891;29;20056;-77
2021/04/05 04:32:25;;;;;;;54.83;30.25;;;5.50;99.90;;;;;;4880722;29;20049;-76
2021/04/05 04:34:52;;;;;;;59.15;29.95;;;5.40;99.90;;;;;;4870066;29;20060;-77
2021/04/05 04:37:19;;;;;;;63.45;31.25;;;5.50;99.90;;;;;;4886085;29;20060;-77
2021/04/05 04:39:46;;;;;;;54.25;30.73;;;5.50;99.90;;;;;;4897330;29;20633;-77
2021/04/05 04:42:13;;;;;;;52.38;30.52;;;5.40;99.90;;;;;;4859365;29;20048;-77
2021/04/05 04:44:40;;;;;;;58.95;31.10;;;5.50;99.90;;;;;;4906516;29;20060;-77
2021/04/05 04:47:07;;;;;;;60.10;31.52;;;5.40;99.90;;;;;;4858981;29;20055;-77
2021/04/05 04:49:33;;;;;;;71.07;30.65;;;5.40;99.90;;;;;;4880413;29;20080;-77
2021/04/05 04:52:00;;;;;;;65.63;34.65;;;5.40;99.90;;;;;;4874001;29;20052;-77
2021/04/05 04:54:27;;;;;;;66.32;32.28;;;5.40;99.90;;;;;;4872104;29;20139;-78
2021/04/05 04:56:53;;;;;;;72.55;35.00;;;5.40;99.90;;;;;;4876318;29;20045;-78
2021/04/05 04:59:21;;;;;;;63.28;32.78;;;5.40;99.90;;;;;;4878060;29;20109;-78
2021/04/05 05:01:48;;;;;;;63.97;34.35;;;5.40;99.90;;;;;;4884425;29;20516;-76
2021/04/05 05:04:25;;;;;;;67.80;32.38;;;5.30;99.90;;;;;;4886245;29;20057;-78
2021/04/05 05:06:54;;;;;;;71.05;36.13;;;5.30;99.90;;;;;;4895721;29;20052;-76
2021/04/05 05:09:21;;;;;;;71.93;35.92;;;5.30;99.90;;;;;;4891682;29;20048;-76
2021/04/05 05:11:47;;;;;;;60.15;35.25;;;5.30;99.90;;;;;;4889471;29;20049;-76
2021/04/05 05:14:15;;;;;;;69.38;34.50;;;5.30;99.90;;;;;;4874637;29;20057;-76
2021/04/05 05:16:44;;;;;;;77.32;37.72;;;5.30;99.90;;;;;;4887128;29;20049;-77
2021/04/05 05:19:13;;;;;;;57.45;32.88;;;5.30;99.90;;;;;;4906170;29;20053;-76
2021/04/05 05:21:50;;;;;;;74.15;39.65;;;5.20;99.90;;;;;;4874727;29;20059;-79
2021/04/05 05:24:20;;;;;;;67.38;35.70;;;5.20;99.90;;;;;;4893856;29;20072;-78
2021/04/05 05:26:49;;;;;;;88.00;41.38;;;5.20;99.90;;;;;;4900185;29;20057;-77
2021/04/05 05:29:21;;;;;;;84.03;40.03;;;5.20;99.90;;;;;;4890156;29;20053;-78
2021/04/05 05:31:48;;;;;;;83.43;38.72;;;5.20;99.90;;;;;;4875325;29;20505;-76
2021/04/05 05:34:18;;;;;;;89.43;43.13;;;5.20;99.90;;;;;;4865248;29;20155;-78
2021/04/05 05:36:46;;;;;;;91.05;43.10;;;5.20;99.90;;;;;;4905617;29;20061;-79
2021/04/05 05:39:14;;;;;;;69.28;36.92;;;5.10;99.90;;;;;;4878727;29;20092;-78
2021/04/05 05:41:41;;;;;;;79.93;41.13;;;5.10;99.90;;;;;;4863184;29;20049;-77
2021/04/05 05:44:29;;;;;;;86.25;42.47;;;5.10;99.90;;;;;;4891602;29;20420;-77
2021/04/05 05:47:13;;;;;;;85.68;43.45;;;5.10;99.90;;;;;;4892155;29;20052;-78
2021/04/05 05:49:50;;;;;;;94.00;46.63;;;5.10;99.90;;;;;;4894040;29;20072;-77
2021/04/05 05:52:54;;;;;;;87.10;43.20;;;5.10;99.90;;;;;;4893092;29;20052;-77
2021/04/05 05:55:42;;;;;;;78.10;39.63;;;5.10;99.90;;;;;;4869431;29;20043;-76
2021/04/05 05:58:20;;;;;;;87.43;41.55;;;5.00;99.90;;;;;;4889858;29;20053;-77
2021/04/05 06:01:22;;;;;;;80.85;41.38;;;5.00;99.90;;;;;;4859148;29;20052;-77
2021/04/05 06:03:53;;;;;;;99.38;46.08;;;4.90;99.90;;;;;;4878333;29;20076;-77
2021/04/05 06:06:32;;;;;;;93.68;43.80;;;4.80;99.90;;;;;;4883375;29;20522;-78
2021/04/05 06:09:32;;;;;;;102.35;47.65;;;4.80;99.90;;;;;;4874796;29;20156;-77
2021/04/05 06:12:06;;;;;;;103.53;44.03;;;4.80;99.90;;;;;;4874283;29;20049;-76
2021/04/05 06:15:02;;;;;;;131.32;57.60;;;4.70;99.90;;;;;;4904766;29;20068;-75
2021/04/05 06:17:50;;;;;;;147.43;59.03;;;4.70;99.90;;;;;;4861112;29;20044;-74
2021/04/05 06:20:25;;;;;;;127.78;52.65;;;4.70;99.90;;;;;;4874491;29;20041;-74
2021/04/05 06:23:14;;;;;;;117.07;55.25;;;4.60;99.90;;;;;;4871981;29;20059;-75
2021/04/05 06:25:58;;;;;;;115.43;50.60;;;4.50;99.90;;;;;;4874147;29;20049;-74
2021/04/05 06:28:57;;;;;;;126.93;55.95;;;4.50;99.90;;;;;;4883563;29;20095;-74
2021/04/05 06:31:51;;;;;;;128.30;53.97;;;4.50;99.90;;;;;;4895041;29;20049;-75
2021/04/05 06:34:35;;;;;;;145.50;60.30;;;4.50;99.90;;;;;;4887689;29;20074;-74
2021/04/05 06:37:24;;;;;;;135.23;57.17;;;4.50;99.90;;;;;;4879653;29;20057;-75
2021/04/05 06:39:58;;;;;;;119.40;51.47;;;4.60;99.90;;;;;;4872333;29;20139;-76
2021/04/05 06:42:37;;;;;;;119.13;50.35;;;4.50;99.90;;;;;;4871263;29;20048;-75
2021/04/05 06:45:15;;;;;;;126.47;54.53;;;4.60;99.90;;;;;;4872565;29;20359;-76
2021/04/05 06:47:44;;;;;;;97.72;44.58;;;4.60;99.90;;;;;;4885846;29;20116;-74
2021/04/05 06:50:31;;;;;;;117.63;50.55;;;4.50;99.90;;;;;;4871989;29;20516;-75
2021/04/05 06:53:19;;;;;;;88.93;42.63;;;4.60;99.90;;;;;;4875343;29;20639;-75
2021/04/05 06:55:56;;;;;;;103.68;47.88;;;4.50;99.90;;;;;;4878676;29;20579;-74
2021/04/05 06:58:24;;;;;;;128.80;54.80;;;4.60;99.90;;;;;;4880132;29;20060;-74
2021/04/05 07:01:09;;;;;;;113.82;52.25;;;4.60;99.90;;;;;;4873267;29;20083;-73
2021/04/05 07:03:54;;;;;;;111.38;52.90;;;4.50;99.90;;;;;;4877049;29;20105;-74
2021/04/05 07:06:51;;;;;;;106.78;49.10;;;4.60;99.90;;;;;;4860009;29;20055;-74
2021/04/05 07:09:36;;;;;;;95.13;44.22;;;4.60;99.90;;;;;;4905100;29;20474;-75
2021/04/05 07:12:15;;;;;;;98.65;49.22;;;4.60;99.90;;;;;;4887969;29;20057;-76
2021/04/05 07:15:08;;;;;;;109.65;48.85;;;4.50;99.90;;;;;;4856170;29;20140;-74
2021/04/05 07:18:08;;;;;;;129.75;60.35;;;4.60;99.90;;;;;;4887801;29;20694;-74
2021/04/05 07:21:04;;;;;;;99.57;45.20;;;4.60;99.90;;;;;;4871333;29;20443;-74
2021/04/05 07:23:44;;;;;;;116.65;49.67;;;4.60;99.90;;;;;;4855905;29;20057;-74
2021/04/05 07:26:43;;;;;;;113.65;50.88;;;4.70;99.90;;;;;;4871537;29;20059;-75
2021/04/05 07:29:33;;;;;;;133.13;56.70;;;4.70;99.90;;;;;;4903853;29;20067;-75
2021/04/05 07:32:50;;;;;;;133.40;53.85;;;4.70;99.90;;;;;;4885714;29;20413;-74
2021/04/05 07:35:29;;;;;;;109.03;50.38;;;4.70;99.90;;;;;;4864434;29;20073;-73
2021/04/05 07:38:04;;;;;;;116.43;54.17;;;4.70;99.90;;;;;;4872056;29;20045;-74
2021/04/05 07:41:03;;;;;;;106.30;47.83;;;4.70;99.90;;;;;;4891359;29;20053;-74
2021/04/05 07:43:41;;;;;;;111.47;49.35;;;4.70;99.90;;;;;;4876506;29;20512;-74
2021/04/05 07:46:29;;;;;;;117.15;51.42;;;4.70;99.90;;;;;;4880744;29;20044;-77
2021/04/05 07:49:11;;;;;;;124.25;55.38;;;4.70;99.90;;;;;;4889252;29;20067;-74
2021/04/05 07:51:53;;;;;;;125.15;52.00;;;4.70;99.90;;;;;;4844876;29;20471;-75
2021/04/05 07:54:22;;;;;;;120.18;52.10;;;4.70;99.90;;;;;;4869116;29;20060;-76
2021/04/05 07:57:06;;;;;;;108.32;50.55;;;4.70;99.90;;;;;;4879301;29;20615;-76
2021/04/05 07:59:46;;;;;;;94.15;43.78;;;4.70;99.90;;;;;;4864712;29;20056;-75
2021/04/05 08:02:40;;;;;;;99.05;44.40;;;4.70;99.90;;;;;;4878103;29;20089;-74
2021/04/05 08:05:43;;;;;;;94.80;42.13;;;4.70;99.90;;;;;;4869928;29;20048;-76
2021/04/05 08:08:49;;;;;;;76.05;38.13;;;4.70;99.90;;;;;;4869853;29;20060;-74
2021/04/05 08:11:53;;;;;;;53.95;24.92;;;4.70;99.90;;;;;;4876926;29;20644;-76
2021/04/05 08:14:30;;;;;;;35.60;18.83;;;4.50;99.90;;;;;;4888268;29;20465;-76
2021/04/05 08:17:14;;;;;;;39.05;18.95;;;4.10;99.90;;;;;;4872671;29;20115;-75
2021/04/05 08:20:03;;;;;;;33.28;15.27;;;4.00;99.90;;;;;;4888862;29;20091;-75
2021/04/05 08:22:48;;;;;;;29.33;14.00;;;3.90;99.90;;;;;;4869116;29;20061;-75
2021/04/05 08:25:45;;;;;;;19.83;10.82;;;3.80;99.90;;;;;;4893074;29;20105;-76
2021/04/05 08:28:24;;;;;;;12.30;7.57;;;3.60;99.90;;;;;;4886482;29;20057;-74
2021/04/05 08:30:55;;;;;;;8.45;6.13;;;3.40;99.90;;;;;;4870165;29;20064;-74
2021/04/05 08:33:38;;;;;;;6.47;4.60;;;3.40;99.90;;;;;;4850492;29;20045;-74
2021/04/05 08:36:30;;;;;;;7.07;5.05;;;3.30;99.90;;;;;;4873532;29;20088;-75
2021/04/05 08:39:07;;;;;;;7.28;4.30;;;3.20;99.90;;;;;;4864521;29;20064;-75
2021/04/05 08:41:58;;;;;;;5.65;4.18;;;3.30;99.90;;;;;;4870888;29;20136;-75
2021/04/05 08:44:44;;;;;;;3.92;3.22;;;3.10;99.90;;;;;;4907674;29;20854;-75
2021/04/05 08:47:28;;;;;;;3.60;2.97;;;3.00;99.90;;;;;;4890289;29;20480;-76
2021/04/05 08:50:01;;;;;;;3.40;3.05;;;2.90;99.90;;;;;;4875242;29;20072;-76
2021/04/05 08:52:32;;;;;;;4.43;2.60;;;2.80;99.90;;;;;;4883371;29;20053;-77
2021/04/05 08:55:00;;;;;;;2.85;2.30;;;2.80;99.90;;;;;;4871919;29;20049;-75
2021/04/05 08:57:36;;;;;;;2.75;2.55;;;2.60;99.90;;;;;;4898927;29;20049;-75
2021/04/05 09:00:06;;;;;;;2.47;2.28;;;2.20;99.90;;;;;;4886854;29;20049;-76
2021/04/05 09:02:43;;;;;;;2.67;2.58;;;2.00;99.90;;;;;;4883204;29;20088;-76
2021/04/05 09:05:22;;;;;;;2.78;2.58;;;1.80;99.90;;;;;;4883283;29;20053;-74
2021/04/05 09:08:11;;;;;;;2.40;2.30;;;1.80;99.90;;;;;;4892229;29;20131;-74
2021/04/05 09:11:05;;;;;;;3.10;2.42;;;1.80;99.90;;;;;;4903359;29;20440;-75
2021/04/05 09:13:42;;;;;;;2.90;2.70;;;1.80;99.90;;;;;;4865216;29;20125;-75
2021/04/05 09:16:27;;;;;;;2.85;2.65;;;1.90;99.90;;;;;;4848908;29;20336;-75
2021/04/05 09:19:06;;;;;;;3.22;3.03;;;2.00;99.90;;;;;;4900471;29;20556;-75
2021/04/05 09:21:45;;;;;;;2.33;2.15;;;2.00;99.90;;;;;;4897051;29;20041;-76
2021/04/05 09:24:40;;;;;;;2.97;2.05;;;2.10;99.90;;;;;;4889868;29;20113;-74
2021/04/05 09:27:18;;;;;;;2.42;2.10;;;2.00;99.90;;;;;;4876148;29;20044;-75
2021/04/05 09:30:08;;;;;;;3.03;2.67;;;2.10;99.90;;;;;;4869655;29;20284;-75
2021/04/05 09:32:49;;;;;;;4.03;2.60;;;2.10;99.90;;;;;;4882543;29;20119;-76
2021/04/05 09:35:44;;;;;;;4.68;2.95;;;2.00;99.90;;;;;;4905776;29;20488;-76
2021/04/05 09:38:28;;;;;;;4.47;4.07;;;2.00;99.90;;;;;;4876419;29;20087;-74
2021/04/05 09:41:21;;;;;;;2.97;2.77;;;1.90;99.90;;;;;;4880338;29;20567;-75
2021/04/05 09:44:09;;;;;;;3.25;2.95;;;1.90;99.90;;;;;;4890060;29;20554;-72
2021/04/05 09:47:23;;;;;;;3.10;2.63;;;1.90;99.90;;;;;;4871760;29;20090;-75
2021/04/05 09:50:01;;;;;;;3.50;3.20;;;1.60;99.90;;;;;;4892687;29;20164;-75
2021/04/05 09:53:15;;;;;;;3.30;3.03;;;1.60;99.90;;;;;;4870842;29;20520;-74
2021/04/05 09:55:49;;;;;;;4.50;3.42;;;1.80;99.90;;;;;;4867873;29;20048;-74
2021/04/05 09:58:26;;;;;;;5.38;4.47;;;1.90;99.90;;;;;;4867956;29;20095;-75
2021/04/05 10:01:02;;;;;;;5.07;4.25;;;2.10;99.90;;;;;;4885611;29;20113;-74
2021/04/05 10:03:29;;;;;;;4.30;3.90;;;2.20;99.90;;;;;;4876553;29;20056;-75
2021/04/05 10:05:57;;;;;;;6.10;4.30;;;2.30;99.90;;;;;;4883144;29;20052;-76
2021/04/05 10:08:27;;;;;;;6.78;5.68;;;2.40;99.90;;;;;;4869931;29;20067;-75
2021/04/05 10:10:56;;;;;;;11.52;5.13;;;2.40;99.90;;;;;;4869948;29;20528;-75
2021/04/05 10:13:27;;;;;;;16.67;4.75;;;2.40;99.90;;;;;;4869952;29;20063;-75
2021/04/05 10:16:20;;;;;;;11.25;5.75;;;2.30;99.90;;;;;;4865101;29;20677;-75
2021/04/05 10:18:48;;;;;;;12.25;6.18;;;2.40;99.90;;;;;;4866952;29;20112;-76
2021/04/05 10:21:17;;;;;;;17.45;6.65;;;2.50;99.90;;;;;;4880166;29;20056;-75
2021/04/05 10:23:45;;;;;;;12.75;6.82;;;2.60;99.90;;;;;;4850861;29;20095;-74
2021/04/05 10:26:15;;;;;;;12.18;7.28;;;2.70;99.90;;;;;;4878234;29;20052;-75
2021/04/05 10:28:44;;;;;;;12.77;7.13;;;2.70;99.90;;;;;;4875952;29;20061;-75
2021/04/05 10:31:16;;;;;;;13.63;7.30;;;2.80;99.90;;;;;;4871697;29;20227;-75
2021/04/05 10:33:56;;;;;;;15.07;7.40;;;2.80;99.90;;;;;;4859956;29;20053;-74
2021/04/05 10:36:25;;;;;;;15.20;8.55;;;3.00;99.90;;;;;;4862980;29;20140;-75
2021/04/05 10:38:52;;;;;;;14.65;9.20;;;3.10;99.90;;;;;;4895575;29;20061;-75
2021/04/05 10:41:22;;;;;;;13.23;9.40;;;3.40;99.90;;;;;;4873702;29;20073;-74
2021/04/05 10:43:52;;;;;;;15.30;9.70;;;3.30;99.90;;;;;;4859917;29;20068;-75
2021/04/05 10:46:30;;;;;;;10.57;9.57;;;3.30;99.90;;;;;;4861724;29;20060;-74
2021/04/05 10:49:15;;;;;;;11.70;9.35;;;3.30;99.90;;;;;;4876820;29;20064;-75
2021/04/05 10:51:47;;;;;;;15.10;9.75;;;3.20;99.90;;;;;;4852993;29;20057;-75
2021/04/05 10:54:33;;;;;;;12.50;8.82;;;3.20;99.90;;;;;;4869081;29;20111;-76
2021/04/05 10:57:05;;;;;;;9.35;5.50;;;2.90;99.90;;;;;;4848159;29;20216;-75
2021/04/05 10:59:52;;;;;;;4.40;4.10;;;1.50;99.90;;;;;;4864617;29;20124;-75
2021/04/05 11:02:42;;;;;;;2.67;2.47;;;1.00;99.90;;;;;;4878773;29;20535;-73
2021/04/05 11:05:19;;;;;;;4.60;2.67;;;0.80;99.90;;;;;;4879126;29;20132;-74
2021/04/05 11:07:53;;;;;;;4.53;2.95;;;0.60;99.90;;;;;;4863603;29;20059;-75
2021/04/05 11:10:21;;;;;;;9.95;3.50;;;0.70;99.90;;;;;;4895722;29;20048;-75
2021/04/05 11:13:16;;;;;;;11.02;5.78;;;0.70;99.90;;;;;;4890865;29;20143;-74
2021/04/05 11:15:46;;;;;;;14.68;7.50;;;0.70;99.90;;;;;;4876738;29;20135;-74
2021/04/05 11:18:16;;;;;;;9.65;4.38;;;0.80;99.90;;;;;;4862951;29;20056;-73
2021/04/05 11:20:44;;;;;;;4.00;2.92;;;1.00;99.90;;;;;;4881905;29;20472;-75
2021/04/05 11:23:15;;;;;;;4.88;3.22;;;1.00;99.90;;;;;;4880978;29;20143;-75
2021/04/05 11:25:48;;;;;;;3.72;3.05;;;0.90;99.90;;;;;;4880850;29;20049;-75
2021/04/05 11:28:24;;;;;;;4.07;3.78;;;1.10;99.90;;;;;;4882357;29;20092;-77
2021/04/05 11:31:05;;;;;;;5.63;3.63;;;1.10;99.90;;;;;;4892118;29;20080;-77
2021/04/05 11:33:35;;;;;;;4.80;4.15;;;1.40;99.90;;;;;;4872310;29;20109;-76
2021/04/05 11:36:04;;;;;;;4.53;4.10;;;1.50;99.90;;;;;;4865906;29;20057;-75
2021/04/05 11:38:35;;;;;;;5.35;4.82;;;1.50;99.90;;;;;;4865621;29;20511;-73
2021/04/05 11:41:06;;;;;;;3.85;3.65;;;1.50;99.90;;;;;;4860746;29;20067;-75
2021/04/05 11:43:36;;;;;;;5.05;4.20;;;1.30;99.90;;;;;;4893631;29;20080;-76
2021/04/05 11:46:08;;;;;;;5.88;5.57;;;1.10;99.90;;;;;;4877610;29;20061;-75
2021/04/05 11:48:34;;;;;;;7.10;6.60;;;0.90;99.90;;;;;;4879959;29;20057;-75
2021/04/05 11:51:02;;;;;;;6.82;6.30;;;0.90;99.90;;;;;;4886732;29;20063;-75
2021/04/05 11:53:59;;;;;;;7.90;7.30;;;1.00;99.90;;;;;;4880980;29;20155;-74
2021/04/05 11:56:29;;;;;;;7.40;7.10;;;1.00;99.90;;;;;;4878820;29;20441;-76
2021/04/05 11:59:18;;;;;;;9.25;8.38;;;1.20;99.90;;;;;;4882040;29;20423;-75
2021/04/05 12:01:57;;;;;;;9.30;8.55;;;1.20;99.90;;;;;;4864609;29;20053;-76
2021/04/05 12:04:30;;;;;;;13.45;10.30;;;1.10;99.90;;;;;;4881446;29;20057;-75
2021/04/05 12:07:11;;;;;;;22.38;12.38;;;1.10;99.90;;;;;;4849891;29;20063;-75
2021/04/05 12:09:42;;;;;;;10.32;8.77;;;1.20;99.90;;;;;;4860109;29;20060;-75
2021/04/05 12:12:36;;;;;;;8.85;8.05;;;1.20;99.90;;;;;;4897853;29;20473;-75
2021/04/05 12:15:04;;;;;;;9.48;8.45;;;1.20;99.90;;;;;;4868662;29;20080;-76
2021/04/05 12:17:33;;;;;;;9.52;7.75;;;1.10;99.90;;;;;;4877574;29;20084;-76
2021/04/05 12:20:01;;;;;;;13.25;8.00;;;1.20;99.90;;;;;;4862408;29;20064;-75
2021/04/05 12:22:30;;;;;;;6.95;6.30;;;1.10;99.90;;;;;;4865757;29;20072;-75
2021/04/05 12:25:03;;;;;;;8.05;5.45;;;0.90;99.90;;;;;;4877903;29;20421;-74
2021/04/05 12:27:36;;;;;;;6.60;5.32;;;0.70;99.90;;;;;;4875746;29;20409;-74
2021/04/05 12:30:26;;;;;;;12.27;8.30;;;0.60;99.90;;;;;;4884493;29;20811;-74
2021/04/05 12:32:54;;;;;;;9.20;8.60;;;0.60;99.90;;;;;;4857338;29;20093;-75
2021/04/05 12:35:23;;;;;;;15.65;9.88;;;0.60;99.90;;;;;;4854771;29;20051;-76
2021/04/05 12:38:03;;;;;;;9.05;8.55;;;0.40;99.90;;;;;;4900161;29;20064;-75
2021/04/05 12:40:33;;;;;;;17.95;8.07;;;0.40;99.90;;;;;;4882884;29;20041;-74
2021/04/05 12:43:13;;;;;;;10.13;9.15;;;0.40;99.90;;;;;;4884318;29;20812;-75
2021/04/05 12:45:48;;;;;;;10.82;9.80;;;0.60;99.90;;;;;;4883313;29;20064;-75
2021/04/05 12:48:20;;;;;;;11.93;9.52;;;0.80;99.90;;;;;;4874276;29;20083;-75
2021/04/05 12:50:47;;;;;;;10.70;9.90;;;0.90;99.90;;;;;;4866891;29;20558;-75
2021/04/05 12:53:13;;;;;;;12.20;10.70;;;1.20;99.90;;;;;;4854265;29;20585;-75
2021/04/05 12:55:41;;;;;;;11.43;10.10;;;1.30;99.90;;;;;;4863930;29;20053;-76
2021/04/05 12:58:09;;;;;;;10.13;9.20;;;1.60;99.90;;;;;;4871639;29;20464;-74
2021/04/05 13:00:40;;;;;;;11.30;10.23;;;1.80;99.90;;;;;;4885664;29;20056;-76
2021/04/05 13:03:32;;;;;;;13.25;11.18;;;2.00;99.90;;;;;;4879586;29;20087;-76
2021/04/05 13:06:05;;;;;;;10.60;9.80;;;2.20;99.90;;;;;;4865950;29;20478;-76
2021/04/05 13:08:51;;;;;;;10.82;9.93;;;2.30;99.90;;;;;;4882666;29;20689;-78
2021/04/05 13:11:25;;;;;;;13.00;10.55;;;2.50;99.90;;;;;;4867454;29;20061;-78
2021/04/05 13:14:03;;;;;;;12.65;9.10;;;2.70;99.90;;;;;;4883785;29;20056;-77
2021/04/05 13:16:49;;;;;;;10.15;9.15;;;3.00;99.90;;;;;;4877607;29;20057;-77
2021/04/05 13:19:18;;;;;;;12.27;10.35;;;2.80;99.90;;;;;;4885206;29;20047;-78
2021/04/05 13:21:47;;;;;;;15.70;10.35;;;2.70;99.90;;;;;;4869342;29;20493;-78
2021/04/05 13:24:23;;;;;;;18.27;11.18;;;2.50;99.90;;;;;;4899859;29;20711;-76